Charlevoix, MI (49711)

2:37 PM EDT on August 04, 2015 (GMT -0400)
1.5 W Ironton | | Change Station
CLOSE
Current Station
Personal Weather Station
Location: Charlevoix, MI
Elevation: 750 ft
Nearby Weather Stations

Elev 750 ft 45.26 °N, 85.22 °W | Updated 0 second ago

Scattered Clouds
Scattered Clouds
66.0 °F
Feels Like 66.0 °F
N
7.0
Wind Variable Wind from West
Gusts 9.0 mph

Today
High -- | Low -- °F
--% Chance of Precip.
Yesterday
High -- | Low -- °F
Precip. -- in
6:28 AM 9:04 PM
Waning Gibbous, 75% visible
Pressure 29.95 in
Visibility 10.0 miles
Clouds Scattered Clouds 12000 ft
Dew Point 55 °F
Humidity 68%
Rainfall 0.07 in
Snow Depth Not available.
UV 8 out of 12
Pollen 6.30 out of 12
Air Quality Not available.
Flu Activity Not available.
METAR KCVX 041835Z AUTO 30008KT 280V010 10SM SCT120 20/12 A2995 RMK AO2 T02000121

More Conditions Fewer Conditions

Pressure 29.95 in
Visibility 10.0 miles
Clouds Scattered Clouds 12000 ft
Dew Point 55 °F
Humidity 68%
Rainfall 0.07 in
Snow Depth Not available.
UV 8 out of 12
Pollen 6.30 out of 12
Air Quality Not available.
Flu Activity Not available.
METAR KCVX 041835Z AUTO 30008KT 280V010 10SM SCT120 20/12 A2995 RMK AO2 T02000121

More Conditions Fewer Conditions

Nowcast | as of 2:00 PM EDT on August 4, 2015

At 3 PM...partly cloudy. Temperature 66. Northwest winds 9 mph. At 5 PM...mostly clear. Temperature 66. West winds 12 mph. At 7 PM...partly cloudy. Temperature 65. Northwest winds 13 mph. At 9 PM...partly cloudy. Temperature 62. Northwest winds 13 mph.

×

10-Day Weather Forecast

×

Almanac

Astronomy

Aug. 04, 2015 Rise Set
Actual Time
Civil Twilight
Nautical Twilight
Astronomical Twilight
Moon
Length of Visible Light
Length of Day
Tomorrow will be .
, % of the Moon is Illuminated

Today's Extremes

State Highs State Lows

Community

WunderPhotos

Upload Photos

1,843,937 photos uploaded!

WunderBlogs® & News

Nearby

Air Quality

  Air Quality AQ Index Pollutant
Not available.

Snow Depth

Station Depth Elevation

Earthquake Activity

City Distance Mag. Time & Date
Minimum magnitude displayed is 2.5.

Coastal Water Temperatures

Place Temperature

Stations

Nearby Weather Stations

Station Location Temp. Windchill Dew Point Humidity Wind Precip. Elev Updated Type